sensor_id;sensor_type;location;lat;lon;timestamp;P1;durP1;ratioP1;P2;durP2;ratioP2
3347;SDS011;1687;49.540;8.574;2023-04-27T00:01:10;9.27;;;3.83;;
3347;SDS011;1687;49.540;8.574;2023-04-27T00:03:37;7.27;;;3.47;;
3347;SDS011;1687;49.540;8.574;2023-04-27T00:06:03;10.23;;;3.10;;
3347;SDS011;1687;49.540;8.574;2023-04-27T00:08:29;8.33;;;3.03;;
3347;SDS011;1687;49.540;8.574;2023-04-27T00:10:56;6.80;;;3.20;;
3347;SDS011;1687;49.540;8.574;2023-04-27T00:13:21;4.00;;;2.47;;
3347;SDS011;1687;49.540;8.574;2023-04-27T00:15:47;5.47;;;3.07;;
3347;SDS011;1687;49.540;8.574;2023-04-27T00:18:13;10.10;;;2.90;;
3347;SDS011;1687;49.540;8.574;2023-04-27T00:20:38;6.17;;;3.40;;
3347;SDS011;1687;49.540;8.574;2023-04-27T00:23:04;7.90;;;3.80;;
3347;SDS011;1687;49.540;8.574;2023-04-27T00:25:31;7.90;;;3.63;;
3347;SDS011;1687;49.540;8.574;2023-04-27T00:27:57;12.13;;;4.30;;
3347;SDS011;1687;49.540;8.574;2023-04-27T00:30:22;5.40;;;3.10;;
3347;SDS011;1687;49.540;8.574;2023-04-27T00:32:48;6.13;;;3.23;;
3347;SDS011;1687;49.540;8.574;2023-04-27T00:35:14;7.50;;;2.80;;
3347;SDS011;1687;49.540;8.574;2023-04-27T00:37:40;8.33;;;3.10;;
3347;SDS011;1687;49.540;8.574;2023-04-27T00:40:06;7.50;;;3.17;;
3347;SDS011;1687;49.540;8.574;2023-04-27T00:42:32;8.90;;;3.20;;
3347;SDS011;1687;49.540;8.574;2023-04-27T00:44:59;6.07;;;3.30;;
3347;SDS011;1687;49.540;8.574;2023-04-27T00:47:25;7.27;;;3.40;;
3347;SDS011;1687;49.540;8.574;2023-04-27T00:49:52;10.03;;;3.50;;
3347;SDS011;1687;49.540;8.574;2023-04-27T00:52:18;12.90;;;6.33;;
3347;SDS011;1687;49.540;8.574;2023-04-27T00:54:44;9.87;;;4.50;;
3347;SDS011;1687;49.540;8.574;2023-04-27T00:57:11;8.40;;;4.67;;
3347;SDS011;1687;49.540;8.574;2023-04-27T00:59:36;10.90;;;4.40;;
3347;SDS011;1687;49.540;8.574;2023-04-27T01:02:02;22.20;;;5.63;;
3347;SDS011;1687;49.540;8.574;2023-04-27T01:04:28;10.40;;;4.87;;
3347;SDS011;1687;49.540;8.574;2023-04-27T01:06:56;8.00;;;4.10;;
3347;SDS011;1687;49.540;8.574;2023-04-27T01:09:21;8.00;;;4.07;;
3347;SDS011;1687;49.540;8.574;2023-04-27T01:11:47;8.40;;;3.80;;
3347;SDS011;1687;49.540;8.574;2023-04-27T01:14:13;12.67;;;4.90;;
3347;SDS011;1687;49.540;8.574;2023-04-27T01:16:39;10.27;;;3.73;;
3347;SDS011;1687;49.540;8.574;2023-04-27T01:19:05;17.20;;;4.50;;
3347;SDS011;1687;49.540;8.574;2023-04-27T01:21:32;13.73;;;4.57;;
3347;SDS011;1687;49.540;8.574;2023-04-27T01:23:57;6.87;;;4.20;;
3347;SDS011;1687;49.540;8.574;2023-04-27T01:26:23;7.27;;;4.13;;
3347;SDS011;1687;49.540;8.574;2023-04-27T01:28:49;8.93;;;3.90;;
3347;SDS011;1687;49.540;8.574;2023-04-27T01:31:14;14.90;;;3.33;;
3347;SDS011;1687;49.540;8.574;2023-04-27T01:33:40;10.00;;;3.83;;
3347;SDS011;1687;49.540;8.574;2023-04-27T01:36:07;10.80;;;4.10;;
3347;SDS011;1687;49.540;8.574;2023-04-27T01:38:33;11.93;;;4.57;;
3347;SDS011;1687;49.540;8.574;2023-04-27T01:40:59;5.13;;;3.40;;
3347;SDS011;1687;49.540;8.574;2023-04-27T01:43:29;8.10;;;4.00;;
3347;SDS011;1687;49.540;8.574;2023-04-27T01:45:55;13.40;;;4.43;;
3347;SDS011;1687;49.540;8.574;2023-04-27T01:48:30;20.60;;;3.63;;
3347;SDS011;1687;49.540;8.574;2023-04-27T01:50:55;6.17;;;3.37;;
3347;SDS011;1687;49.540;8.574;2023-04-27T01:53:21;6.57;;;3.07;;
3347;SDS011;1687;49.540;8.574;2023-04-27T01:55:47;5.57;;;3.10;;
3347;SDS011;1687;49.540;8.574;2023-04-27T01:58:13;9.53;;;3.40;;
3347;SDS011;1687;49.540;8.574;2023-04-27T02:00:38;8.93;;;3.07;;
3347;SDS011;1687;49.540;8.574;2023-04-27T02:03:04;4.80;;;2.90;;
3347;SDS011;1687;49.540;8.574;2023-04-27T02:05:30;5.93;;;3.40;;
3347;SDS011;1687;49.540;8.574;2023-04-27T02:07:55;7.60;;;2.90;;
3347;SDS011;1687;49.540;8.574;2023-04-27T02:10:21;5.77;;;2.80;;
3347;SDS011;1687;49.540;8.574;2023-04-27T02:12:47;17.50;;;4.20;;
3347;SDS011;1687;49.540;8.574;2023-04-27T02:15:13;6.07;;;2.90;;
3347;SDS011;1687;49.540;8.574;2023-04-27T02:17:39;9.40;;;3.13;;
3347;SDS011;1687;49.540;8.574;2023-04-27T02:20:05;6.97;;;3.70;;
3347;SDS011;1687;49.540;8.574;2023-04-27T02:22:31;7.37;;;3.97;;
3347;SDS011;1687;49.540;8.574;2023-04-27T02:24:58;10.73;;;4.07;;
3347;SDS011;1687;49.540;8.574;2023-04-27T02:27:24;7.73;;;3.77;;
3347;SDS011;1687;49.540;8.574;2023-04-27T02:29:50;6.60;;;3.27;;
3347;SDS011;1687;49.540;8.574;2023-04-27T02:32:16;4.90;;;3.50;;
3347;SDS011;1687;49.540;8.574;2023-04-27T02:34:41;12.47;;;3.87;;
3347;SDS011;1687;49.540;8.574;2023-04-27T02:37:07;7.77;;;3.50;;
3347;SDS011;1687;49.540;8.574;2023-04-27T02:39:33;6.57;;;3.10;;
3347;SDS011;1687;49.540;8.574;2023-04-27T02:41:59;7.00;;;3.83;;
3347;SDS011;1687;49.540;8.574;2023-04-27T02:44:26;10.70;;;3.50;;
3347;SDS011;1687;49.540;8.574;2023-04-27T02:46:52;15.20;;;3.53;;
3347;SDS011;1687;49.540;8.574;2023-04-27T02:49:18;6.00;;;3.40;;
3347;SDS011;1687;49.540;8.574;2023-04-27T02:51:44;4.40;;;2.93;;
3347;SDS011;1687;49.540;8.574;2023-04-27T02:54:10;6.80;;;2.73;;
3347;SDS011;1687;49.540;8.574;2023-04-27T02:56:36;17.07;;;4.07;;
3347;SDS011;1687;49.540;8.574;2023-04-27T02:59:01;7.63;;;4.27;;
3347;SDS011;1687;49.540;8.574;2023-04-27T03:01:28;5.23;;;2.87;;
3347;SDS011;1687;49.540;8.574;2023-04-27T03:03:53;8.13;;;3.10;;
3347;SDS011;1687;49.540;8.574;2023-04-27T03:06:19;6.27;;;3.33;;
3347;SDS011;1687;49.540;8.574;2023-04-27T03:08:45;5.93;;;3.47;;
3347;SDS011;1687;49.540;8.574;2023-04-27T03:11:10;6.30;;;2.80;;
3347;SDS011;1687;49.540;8.574;2023-04-27T03:13:36;4.77;;;2.90;;
3347;SDS011;1687;49.540;8.574;2023-04-27T03:16:08;4.40;;;2.37;;
3347;SDS011;1687;49.540;8.574;2023-04-27T03:18:35;7.87;;;3.90;;
3347;SDS011;1687;49.540;8.574;2023-04-27T03:21:08;13.23;;;3.70;;
3347;SDS011;1687;49.540;8.574;2023-04-27T03:23:36;8.40;;;3.47;;
3347;SDS011;1687;49.540;8.574;2023-04-27T03:26:06;6.50;;;2.50;;
3347;SDS011;1687;49.540;8.574;2023-04-27T03:28:36;5.53;;;3.23;;
3347;SDS011;1687;49.540;8.574;2023-04-27T03:31:05;8.27;;;3.67;;
3347;SDS011;1687;49.540;8.574;2023-04-27T03:33:37;7.83;;;3.57;;
3347;SDS011;1687;49.540;8.574;2023-04-27T03:36:03;10.70;;;3.73;;
3347;SDS011;1687;49.540;8.574;2023-04-27T03:38:31;7.00;;;3.43;;
3347;SDS011;1687;49.540;8.574;2023-04-27T03:40:59;21.23;;;4.23;;
3347;SDS011;1687;49.540;8.574;2023-04-27T03:43:25;6.77;;;3.63;;
3347;SDS011;1687;49.540;8.574;2023-04-27T03:45:51;9.17;;;3.93;;
3347;SDS011;1687;49.540;8.574;2023-04-27T03:48:17;13.87;;;4.90;;
3347;SDS011;1687;49.540;8.574;2023-04-27T03:50:44;11.10;;;3.90;;
3347;SDS011;1687;49.540;8.574;2023-04-27T03:53:10;9.03;;;4.50;;
3347;SDS011;1687;49.540;8.574;2023-04-27T03:55:41;8.17;;;3.37;;
3347;SDS011;1687;49.540;8.574;2023-04-27T03:58:08;8.20;;;3.50;;
3347;SDS011;1687;49.540;8.574;2023-04-27T04:00:35;12.03;;;4.30;;
3347;SDS011;1687;49.540;8.574;2023-04-27T04:03:01;7.63;;;3.83;;
3347;SDS011;1687;49.540;8.574;2023-04-27T04:05:28;6.40;;;4.00;;
3347;SDS011;1687;49.540;8.574;2023-04-27T04:07:54;14.30;;;4.10;;
3347;SDS011;1687;49.540;8.574;2023-04-27T04:10:21;9.50;;;3.90;;
3347;SDS011;1687;49.540;8.574;2023-04-27T04:12:47;13.07;;;5.07;;
3347;SDS011;1687;49.540;8.574;2023-04-27T04:15:12;14.80;;;4.70;;
3347;SDS011;1687;49.540;8.574;2023-04-27T04:17:38;11.50;;;4.67;;
3347;SDS011;1687;49.540;8.574;2023-04-27T04:20:04;10.83;;;5.37;;
3347;SDS011;1687;49.540;8.574;2023-04-27T04:22:34;5.87;;;3.40;;
3347;SDS011;1687;49.540;8.574;2023-04-27T04:25:01;9.40;;;4.00;;
3347;SDS011;1687;49.540;8.574;2023-04-27T04:27:28;11.60;;;5.23;;
3347;SDS011;1687;49.540;8.574;2023-04-27T04:29:54;8.17;;;4.83;;
3347;SDS011;1687;49.540;8.574;2023-04-27T04:32:20;14.73;;;4.20;;
3347;SDS011;1687;49.540;8.574;2023-04-27T04:34:49;12.63;;;6.10;;
3347;SDS011;1687;49.540;8.574;2023-04-27T04:37:15;13.20;;;5.73;;
3347;SDS011;1687;49.540;8.574;2023-04-27T04:39:42;9.60;;;5.00;;
3347;SDS011;1687;49.540;8.574;2023-04-27T04:42:09;8.23;;;4.13;;
3347;SDS011;1687;49.540;8.574;2023-04-27T04:44:34;13.83;;;4.57;;
3347;SDS011;1687;49.540;8.574;2023-04-27T04:47:00;10.07;;;4.87;;
3347;SDS011;1687;49.540;8.574;2023-04-27T04:49:26;9.57;;;5.17;;
3347;SDS011;1687;49.540;8.574;2023-04-27T04:51:52;11.67;;;4.53;;
3347;SDS011;1687;49.540;8.574;2023-04-27T04:54:17;17.07;;;6.00;;
3347;SDS011;1687;49.540;8.574;2023-04-27T04:56:43;13.37;;;4.90;;
3347;SDS011;1687;49.540;8.574;2023-04-27T04:59:08;11.07;;;4.90;;
3347;SDS011;1687;49.540;8.574;2023-04-27T05:01:34;11.47;;;5.53;;
3347;SDS011;1687;49.540;8.574;2023-04-27T05:04:00;13.30;;;5.87;;
3347;SDS011;1687;49.540;8.574;2023-04-27T05:06:26;11.90;;;6.80;;
3347;SDS011;1687;49.540;8.574;2023-04-27T05:08:51;14.80;;;5.03;;
3347;SDS011;1687;49.540;8.574;2023-04-27T05:11:17;11.93;;;5.43;;
3347;SDS011;1687;49.540;8.574;2023-04-27T05:13:43;11.67;;;4.80;;
3347;SDS011;1687;49.540;8.574;2023-04-27T05:16:08;10.53;;;4.60;;
3347;SDS011;1687;49.540;8.574;2023-04-27T05:18:34;15.20;;;5.10;;
3347;SDS011;1687;49.540;8.574;2023-04-27T05:21:00;9.07;;;4.30;;
3347;SDS011;1687;49.540;8.574;2023-04-27T05:23:26;11.77;;;5.80;;
3347;SDS011;1687;49.540;8.574;2023-04-27T05:25:52;9.57;;;5.47;;
3347;SDS011;1687;49.540;8.574;2023-04-27T05:28:17;11.50;;;4.60;;
3347;SDS011;1687;49.540;8.574;2023-04-27T05:30:43;8.10;;;4.23;;
3347;SDS011;1687;49.540;8.574;2023-04-27T05:33:09;8.60;;;5.50;;
3347;SDS011;1687;49.540;8.574;2023-04-27T05:35:35;15.60;;;5.93;;
3347;SDS011;1687;49.540;8.574;2023-04-27T05:38:01;12.00;;;4.80;;
3347;SDS011;1687;49.540;8.574;2023-04-27T05:40:27;9.93;;;4.50;;
3347;SDS011;1687;49.540;8.574;2023-04-27T05:42:53;11.80;;;5.70;;
3347;SDS011;1687;49.540;8.574;2023-04-27T05:45:18;16.77;;;5.53;;
3347;SDS011;1687;49.540;8.574;2023-04-27T05:47:45;16.80;;;5.97;;
3347;SDS011;1687;49.540;8.574;2023-04-27T05:50:11;11.27;;;5.83;;
3347;SDS011;1687;49.540;8.574;2023-04-27T05:52:37;13.80;;;4.87;;
3347;SDS011;1687;49.540;8.574;2023-04-27T05:55:03;13.50;;;5.87;;
3347;SDS011;1687;49.540;8.574;2023-04-27T05:57:29;14.03;;;4.67;;
3347;SDS011;1687;49.540;8.574;2023-04-27T05:59:55;11.40;;;5.43;;
3347;SDS011;1687;49.540;8.574;2023-04-27T06:02:21;10.57;;;5.30;;
3347;SDS011;1687;49.540;8.574;2023-04-27T06:04:47;25.03;;;5.57;;
3347;SDS011;1687;49.540;8.574;2023-04-27T06:07:13;10.13;;;5.77;;
3347;SDS011;1687;49.540;8.574;2023-04-27T06:09:39;12.60;;;5.60;;
3347;SDS011;1687;49.540;8.574;2023-04-27T06:12:06;12.50;;;5.53;;
3347;SDS011;1687;49.540;8.574;2023-04-27T06:14:33;9.80;;;5.53;;
3347;SDS011;1687;49.540;8.574;2023-04-27T06:17:01;18.40;;;5.00;;
3347;SDS011;1687;49.540;8.574;2023-04-27T06:19:27;12.00;;;4.40;;
3347;SDS011;1687;49.540;8.574;2023-04-27T06:21:53;10.30;;;4.73;;
3347;SDS011;1687;49.540;8.574;2023-04-27T06:24:19;16.60;;;5.80;;
3347;SDS011;1687;49.540;8.574;2023-04-27T06:26:46;14.30;;;5.93;;
3347;SDS011;1687;49.540;8.574;2023-04-27T06:29:13;9.30;;;5.17;;
3347;SDS011;1687;49.540;8.574;2023-04-27T06:31:39;9.13;;;4.80;;
3347;SDS011;1687;49.540;8.574;2023-04-27T06:34:05;15.33;;;5.20;;
3347;SDS011;1687;49.540;8.574;2023-04-27T06:36:31;10.97;;;5.10;;
3347;SDS011;1687;49.540;8.574;2023-04-27T06:38:57;11.00;;;4.93;;
3347;SDS011;1687;49.540;8.574;2023-04-27T06:41:23;15.10;;;6.27;;
3347;SDS011;1687;49.540;8.574;2023-04-27T06:43:50;13.00;;;5.00;;
3347;SDS011;1687;49.540;8.574;2023-04-27T06:46:17;10.60;;;5.20;;
3347;SDS011;1687;49.540;8.574;2023-04-27T06:48:43;9.90;;;4.77;;
3347;SDS011;1687;49.540;8.574;2023-04-27T06:51:10;7.80;;;4.80;;
3347;SDS011;1687;49.540;8.574;2023-04-27T06:53:36;6.93;;;4.10;;
3347;SDS011;1687;49.540;8.574;2023-04-27T06:56:08;11.50;;;4.70;;
3347;SDS011;1687;49.540;8.574;2023-04-27T06:58:35;15.03;;;5.30;;
3347;SDS011;1687;49.540;8.574;2023-04-27T07:01:01;7.37;;;4.43;;
3347;SDS011;1687;49.540;8.574;2023-04-27T07:03:28;12.30;;;4.80;;
3347;SDS011;1687;49.540;8.574;2023-04-27T07:05:55;7.57;;;5.33;;
3347;SDS011;1687;49.540;8.574;2023-04-27T07:08:21;12.43;;;5.83;;
3347;SDS011;1687;49.540;8.574;2023-04-27T07:10:47;10.80;;;5.10;;
3347;SDS011;1687;49.540;8.574;2023-04-27T07:13:12;8.27;;;5.07;;
3347;SDS011;1687;49.540;8.574;2023-04-27T07:15:38;13.07;;;5.87;;
3347;SDS011;1687;49.540;8.574;2023-04-27T07:18:04;9.43;;;5.40;;
3347;SDS011;1687;49.540;8.574;2023-04-27T07:20:30;8.80;;;4.20;;
3347;SDS011;1687;49.540;8.574;2023-04-27T07:22:55;15.70;;;5.00;;
3347;SDS011;1687;49.540;8.574;2023-04-27T07:25:21;9.50;;;5.50;;
3347;SDS011;1687;49.540;8.574;2023-04-27T07:27:47;16.73;;;4.50;;
3347;SDS011;1687;49.540;8.574;2023-04-27T07:30:13;10.07;;;4.90;;
3347;SDS011;1687;49.540;8.574;2023-04-27T07:32:39;12.43;;;5.00;;
3347;SDS011;1687;49.540;8.574;2023-04-27T07:35:06;12.77;;;4.60;;
3347;SDS011;1687;49.540;8.574;2023-04-27T07:37:33;12.13;;;4.50;;
3347;SDS011;1687;49.540;8.574;2023-04-27T07:40:02;11.63;;;4.33;;
3347;SDS011;1687;49.540;8.574;2023-04-27T07:42:40;6.60;;;3.93;;
3347;SDS011;1687;49.540;8.574;2023-04-27T07:45:10;15.47;;;5.67;;
3347;SDS011;1687;49.540;8.574;2023-04-27T07:47:37;13.37;;;5.53;;
3347;SDS011;1687;49.540;8.574;2023-04-27T07:50:03;6.00;;;3.50;;
3347;SDS011;1687;49.540;8.574;2023-04-27T07:52:31;13.73;;;4.93;;
3347;SDS011;1687;49.540;8.574;2023-04-27T07:54:57;10.10;;;4.30;;
3347;SDS011;1687;49.540;8.574;2023-04-27T07:57:22;15.80;;;5.03;;
3347;SDS011;1687;49.540;8.574;2023-04-27T07:59:48;19.43;;;4.47;;
3347;SDS011;1687;49.540;8.574;2023-04-27T08:02:14;10.10;;;4.00;;
3347;SDS011;1687;49.540;8.574;2023-04-27T08:04:39;9.83;;;3.67;;
3347;SDS011;1687;49.540;8.574;2023-04-27T08:07:05;7.40;;;4.43;;
3347;SDS011;1687;49.540;8.574;2023-04-27T08:09:31;4.70;;;3.07;;
3347;SDS011;1687;49.540;8.574;2023-04-27T08:11:56;8.13;;;4.03;;
3347;SDS011;1687;49.540;8.574;2023-04-27T08:14:22;9.37;;;3.50;;
3347;SDS011;1687;49.540;8.574;2023-04-27T08:16:48;9.23;;;4.67;;
3347;SDS011;1687;49.540;8.574;2023-04-27T08:19:15;10.60;;;4.50;;
3347;SDS011;1687;49.540;8.574;2023-04-27T08:21:42;8.90;;;4.77;;
3347;SDS011;1687;49.540;8.574;2023-04-27T08:24:08;9.23;;;4.90;;
3347;SDS011;1687;49.540;8.574;2023-04-27T08:26:34;16.83;;;4.37;;
3347;SDS011;1687;49.540;8.574;2023-04-27T08:29:00;8.27;;;4.50;;
3347;SDS011;1687;49.540;8.574;2023-04-27T08:31:26;9.07;;;3.60;;
3347;SDS011;1687;49.540;8.574;2023-04-27T08:33:52;8.30;;;4.17;;
3347;SDS011;1687;49.540;8.574;2023-04-27T08:36:21;21.40;;;3.63;;
3347;SDS011;1687;49.540;8.574;2023-04-27T08:38:51;9.97;;;4.80;;
3347;SDS011;1687;49.540;8.574;2023-04-27T08:41:21;13.50;;;5.07;;
3347;SDS011;1687;49.540;8.574;2023-04-27T08:43:51;11.60;;;4.90;;
3347;SDS011;1687;49.540;8.574;2023-04-27T08:46:18;11.23;;;4.67;;
3347;SDS011;1687;49.540;8.574;2023-04-27T08:48:46;11.00;;;4.67;;
3347;SDS011;1687;49.540;8.574;2023-04-27T08:51:14;6.27;;;3.87;;
3347;SDS011;1687;49.540;8.574;2023-04-27T08:53:48;10.00;;;4.43;;
3347;SDS011;1687;49.540;8.574;2023-04-27T08:56:17;8.07;;;4.27;;
3347;SDS011;1687;49.540;8.574;2023-04-27T08:58:43;8.87;;;4.63;;
3347;SDS011;1687;49.540;8.574;2023-04-27T09:01:09;12.40;;;4.67;;
3347;SDS011;1687;49.540;8.574;2023-04-27T09:03:36;11.00;;;4.70;;
3347;SDS011;1687;49.540;8.574;2023-04-27T09:06:04;11.07;;;4.40;;
3347;SDS011;1687;49.540;8.574;2023-04-27T09:08:46;12.80;;;4.30;;
3347;SDS011;1687;49.540;8.574;2023-04-27T09:11:14;14.33;;;4.83;;
3347;SDS011;1687;49.540;8.574;2023-04-27T09:14:00;10.00;;;5.30;;
3347;SDS011;1687;49.540;8.574;2023-04-27T09:16:38;10.97;;;5.20;;
3347;SDS011;1687;49.540;8.574;2023-04-27T09:19:04;10.50;;;4.60;;
3347;SDS011;1687;49.540;8.574;2023-04-27T09:21:30;17.73;;;6.83;;
3347;SDS011;1687;49.540;8.574;2023-04-27T09:23:56;7.57;;;4.00;;
3347;SDS011;1687;49.540;8.574;2023-04-27T09:26:23;9.30;;;3.90;;
3347;SDS011;1687;49.540;8.574;2023-04-27T09:28:51;7.37;;;3.83;;
3347;SDS011;1687;49.540;8.574;2023-04-27T09:31:32;7.77;;;3.83;;
3347;SDS011;1687;49.540;8.574;2023-04-27T09:34:01;9.80;;;4.20;;
3347;SDS011;1687;49.540;8.574;2023-04-27T09:36:27;14.63;;;4.03;;
3347;SDS011;1687;49.540;8.574;2023-04-27T09:38:56;12.77;;;4.70;;
3347;SDS011;1687;49.540;8.574;2023-04-27T09:41:23;9.53;;;4.03;;
3347;SDS011;1687;49.540;8.574;2023-04-27T09:43:49;9.43;;;4.23;;
3347;SDS011;1687;49.540;8.574;2023-04-27T09:46:16;9.60;;;4.50;;
3347;SDS011;1687;49.540;8.574;2023-04-27T09:48:43;7.83;;;4.27;;
3347;SDS011;1687;49.540;8.574;2023-04-27T09:51:08;9.40;;;3.50;;
3347;SDS011;1687;49.540;8.574;2023-04-27T09:53:39;8.53;;;4.20;;
3347;SDS011;1687;49.540;8.574;2023-04-27T09:56:28;11.17;;;4.37;;
3347;SDS011;1687;49.540;8.574;2023-04-27T10:02:21;7.43;;;3.67;;
3347;SDS011;1687;49.540;8.574;2023-04-27T10:07:32;8.03;;;3.77;;
3347;SDS011;1687;49.540;8.574;2023-04-27T10:10:00;13.27;;;4.37;;
3347;SDS011;1687;49.540;8.574;2023-04-27T10:12:32;12.03;;;4.00;;
3347;SDS011;1687;49.540;8.574;2023-04-27T10:15:15;10.27;;;4.43;;
3347;SDS011;1687;49.540;8.574;2023-04-27T10:17:48;6.33;;;3.43;;
3347;SDS011;1687;49.540;8.574;2023-04-27T10:20:27;10.00;;;3.20;;
3347;SDS011;1687;49.540;8.574;2023-04-27T10:22:59;6.27;;;3.70;;
3347;SDS011;1687;49.540;8.574;2023-04-27T10:25:26;12.50;;;3.30;;
3347;SDS011;1687;49.540;8.574;2023-04-27T10:30:23;14.17;;;6.33;;
3347;SDS011;1687;49.540;8.574;2023-04-27T10:32:57;8.60;;;5.20;;
3347;SDS011;1687;49.540;8.574;2023-04-27T10:35:32;16.47;;;3.70;;
3347;SDS011;1687;49.540;8.574;2023-04-27T10:38:14;12.37;;;3.50;;
3347;SDS011;1687;49.540;8.574;2023-04-27T10:40:52;6.33;;;3.40;;
3347;SDS011;1687;49.540;8.574;2023-04-27T10:43:32;6.30;;;3.10;;
3347;SDS011;1687;49.540;8.574;2023-04-27T10:46:06;4.67;;;2.93;;
3347;SDS011;1687;49.540;8.574;2023-04-27T10:48:40;7.50;;;3.30;;
3347;SDS011;1687;49.540;8.574;2023-04-27T10:51:07;15.33;;;3.63;;
3347;SDS011;1687;49.540;8.574;2023-04-27T10:53:33;5.57;;;3.10;;
3347;SDS011;1687;49.540;8.574;2023-04-27T10:56:02;6.70;;;3.90;;
3347;SDS011;1687;49.540;8.574;2023-04-27T10:58:32;9.60;;;3.70;;
3347;SDS011;1687;49.540;8.574;2023-04-27T11:00:59;7.37;;;3.70;;
3347;SDS011;1687;49.540;8.574;2023-04-27T11:03:24;13.73;;;4.40;;
3347;SDS011;1687;49.540;8.574;2023-04-27T11:05:58;7.77;;;3.70;;
3347;SDS011;1687;49.540;8.574;2023-04-27T11:08:29;6.90;;;3.73;;
3347;SDS011;1687;49.540;8.574;2023-04-27T11:10:56;10.60;;;3.57;;
3347;SDS011;1687;49.540;8.574;2023-04-27T11:13:23;9.83;;;3.70;;
3347;SDS011;1687;49.540;8.574;2023-04-27T11:15:51;9.23;;;3.17;;
3347;SDS011;1687;49.540;8.574;2023-04-27T11:18:20;8.33;;;3.20;;
3347;SDS011;1687;49.540;8.574;2023-04-27T11:20:49;9.53;;;3.50;;
3347;SDS011;1687;49.540;8.574;2023-04-27T11:25:51;4.20;;;2.60;;
3347;SDS011;1687;49.540;8.574;2023-04-27T11:28:17;6.07;;;3.20;;
3347;SDS011;1687;49.540;8.574;2023-04-27T11:30:44;7.70;;;4.10;;
3347;SDS011;1687;49.540;8.574;2023-04-27T11:33:09;6.73;;;3.60;;
3347;SDS011;1687;49.540;8.574;2023-04-27T11:35:35;8.13;;;3.63;;
3347;SDS011;1687;49.540;8.574;2023-04-27T11:38:03;11.43;;;4.00;;
3347;SDS011;1687;49.540;8.574;2023-04-27T11:40:28;8.97;;;3.27;;
3347;SDS011;1687;49.540;8.574;2023-04-27T11:42:57;4.90;;;3.23;;
3347;SDS011;1687;49.540;8.574;2023-04-27T11:45:24;8.40;;;3.90;;
3347;SDS011;1687;49.540;8.574;2023-04-27T11:47:53;4.30;;;2.93;;
3347;SDS011;1687;49.540;8.574;2023-04-27T11:50:23;6.07;;;3.53;;
3347;SDS011;1687;49.540;8.574;2023-04-27T11:52:52;5.27;;;3.03;;
3347;SDS011;1687;49.540;8.574;2023-04-27T11:55:21;10.77;;;3.37;;
3347;SDS011;1687;49.540;8.574;2023-04-27T11:57:46;5.70;;;3.40;;
3347;SDS011;1687;49.540;8.574;2023-04-27T12:00:13;11.23;;;5.20;;
3347;SDS011;1687;49.540;8.574;2023-04-27T12:02:41;8.30;;;3.60;;
3347;SDS011;1687;49.540;8.574;2023-04-27T12:05:07;6.57;;;3.50;;
3347;SDS011;1687;49.540;8.574;2023-04-27T12:07:33;11.20;;;4.43;;
3347;SDS011;1687;49.540;8.574;2023-04-27T12:09:59;8.73;;;3.30;;
3347;SDS011;1687;49.540;8.574;2023-04-27T12:12:25;7.23;;;3.47;;
3347;SDS011;1687;49.540;8.574;2023-04-27T12:14:51;6.87;;;2.90;;
3347;SDS011;1687;49.540;8.574;2023-04-27T12:17:17;5.03;;;2.77;;
3347;SDS011;1687;49.540;8.574;2023-04-27T12:19:43;9.03;;;4.27;;
3347;SDS011;1687;49.540;8.574;2023-04-27T12:22:09;9.50;;;4.27;;
3347;SDS011;1687;49.540;8.574;2023-04-27T12:24:35;12.10;;;4.33;;
3347;SDS011;1687;49.540;8.574;2023-04-27T12:27:01;14.03;;;3.80;;
3347;SDS011;1687;49.540;8.574;2023-04-27T12:29:28;33.03;;;7.50;;
3347;SDS011;1687;49.540;8.574;2023-04-27T12:31:56;10.97;;;4.93;;
3347;SDS011;1687;49.540;8.574;2023-04-27T12:34:23;6.10;;;3.73;;
3347;SDS011;1687;49.540;8.574;2023-04-27T12:36:49;6.90;;;3.47;;
3347;SDS011;1687;49.540;8.574;2023-04-27T12:39:20;6.60;;;3.70;;
3347;SDS011;1687;49.540;8.574;2023-04-27T12:41:50;15.13;;;3.83;;
3347;SDS011;1687;49.540;8.574;2023-04-27T12:44:17;7.30;;;3.00;;
3347;SDS011;1687;49.540;8.574;2023-04-27T12:46:44;6.17;;;3.70;;
3347;SDS011;1687;49.540;8.574;2023-04-27T12:49:12;10.13;;;4.80;;
3347;SDS011;1687;49.540;8.574;2023-04-27T12:51:38;8.50;;;3.83;;
3347;SDS011;1687;49.540;8.574;2023-04-27T12:54:04;18.77;;;4.47;;
3347;SDS011;1687;49.540;8.574;2023-04-27T12:56:31;8.43;;;4.40;;
3347;SDS011;1687;49.540;8.574;2023-04-27T12:58:57;8.87;;;3.63;;
3347;SDS011;1687;49.540;8.574;2023-04-27T13:01:24;8.93;;;3.73;;
3347;SDS011;1687;49.540;8.574;2023-04-27T13:03:52;5.27;;;3.30;;
3347;SDS011;1687;49.540;8.574;2023-04-27T13:06:19;4.53;;;3.40;;
3347;SDS011;1687;49.540;8.574;2023-04-27T13:08:46;5.70;;;3.70;;
3347;SDS011;1687;49.540;8.574;2023-04-27T13:11:14;13.90;;;3.17;;
3347;SDS011;1687;49.540;8.574;2023-04-27T13:13:40;9.00;;;3.20;;
3347;SDS011;1687;49.540;8.574;2023-04-27T13:16:06;13.37;;;3.33;;
3347;SDS011;1687;49.540;8.574;2023-04-27T13:18:32;11.70;;;3.50;;
3347;SDS011;1687;49.540;8.574;2023-04-27T13:20:58;7.50;;;3.30;;
3347;SDS011;1687;49.540;8.574;2023-04-27T13:23:24;9.23;;;3.27;;
3347;SDS011;1687;49.540;8.574;2023-04-27T13:25:50;5.53;;;3.63;;
3347;SDS011;1687;49.540;8.574;2023-04-27T13:28:17;6.97;;;3.40;;
3347;SDS011;1687;49.540;8.574;2023-04-27T13:30:42;9.50;;;3.63;;
3347;SDS011;1687;49.540;8.574;2023-04-27T13:33:09;6.80;;;3.20;;
3347;SDS011;1687;49.540;8.574;2023-04-27T13:35:37;10.33;;;3.80;;
3347;SDS011;1687;49.540;8.574;2023-04-27T13:38:03;10.13;;;2.90;;
3347;SDS011;1687;49.540;8.574;2023-04-27T13:40:29;10.20;;;3.67;;
3347;SDS011;1687;49.540;8.574;2023-04-27T13:42:54;8.37;;;4.43;;
3347;SDS011;1687;49.540;8.574;2023-04-27T13:45:20;8.10;;;4.00;;
3347;SDS011;1687;49.540;8.574;2023-04-27T13:47:46;10.70;;;4.67;;
3347;SDS011;1687;49.540;8.574;2023-04-27T13:50:12;5.83;;;3.57;;
3347;SDS011;1687;49.540;8.574;2023-04-27T13:52:38;4.50;;;2.60;;
3347;SDS011;1687;49.540;8.574;2023-04-27T13:55:05;9.00;;;3.27;;
3347;SDS011;1687;49.540;8.574;2023-04-27T13:57:33;5.83;;;2.57;;
3347;SDS011;1687;49.540;8.574;2023-04-27T13:59:59;4.93;;;3.13;;
3347;SDS011;1687;49.540;8.574;2023-04-27T14:02:29;11.77;;;4.07;;
3347;SDS011;1687;49.540;8.574;2023-04-27T14:04:55;6.37;;;3.00;;
3347;SDS011;1687;49.540;8.574;2023-04-27T14:07:21;4.43;;;2.67;;
3347;SDS011;1687;49.540;8.574;2023-04-27T14:09:47;7.70;;;3.70;;
3347;SDS011;1687;49.540;8.574;2023-04-27T14:12:13;5.00;;;3.30;;
3347;SDS011;1687;49.540;8.574;2023-04-27T14:14:39;5.73;;;3.30;;
3347;SDS011;1687;49.540;8.574;2023-04-27T14:17:05;14.80;;;2.77;;
3347;SDS011;1687;49.540;8.574;2023-04-27T14:19:31;4.60;;;2.33;;
3347;SDS011;1687;49.540;8.574;2023-04-27T14:21:58;14.27;;;3.30;;
3347;SDS011;1687;49.540;8.574;2023-04-27T14:24:24;4.93;;;2.67;;
3347;SDS011;1687;49.540;8.574;2023-04-27T14:26:50;6.90;;;2.83;;
3347;SDS011;1687;49.540;8.574;2023-04-27T14:29:16;7.00;;;3.10;;
3347;SDS011;1687;49.540;8.574;2023-04-27T14:31:42;5.30;;;2.13;;
3347;SDS011;1687;49.540;8.574;2023-04-27T14:34:09;3.97;;;2.33;;
3347;SDS011;1687;49.540;8.574;2023-04-27T14:36:35;3.17;;;2.47;;
3347;SDS011;1687;49.540;8.574;2023-04-27T14:39:01;4.90;;;2.07;;
3347;SDS011;1687;49.540;8.574;2023-04-27T14:41:29;6.47;;;2.30;;
3347;SDS011;1687;49.540;8.574;2023-04-27T14:43:55;4.23;;;2.10;;
3347;SDS011;1687;49.540;8.574;2023-04-27T14:46:20;7.07;;;2.30;;
3347;SDS011;1687;49.540;8.574;2023-04-27T14:48:46;3.10;;;2.20;;
3347;SDS011;1687;49.540;8.574;2023-04-27T14:51:12;5.07;;;2.63;;
3347;SDS011;1687;49.540;8.574;2023-04-27T14:53:39;9.00;;;2.80;;
3347;SDS011;1687;49.540;8.574;2023-04-27T14:56:05;3.67;;;1.93;;
3347;SDS011;1687;49.540;8.574;2023-04-27T14:58:31;3.73;;;2.07;;
3347;SDS011;1687;49.540;8.574;2023-04-27T15:00:57;2.90;;;2.10;;
3347;SDS011;1687;49.540;8.574;2023-04-27T15:03:24;6.53;;;2.93;;
3347;SDS011;1687;49.540;8.574;2023-04-27T15:05:51;3.73;;;1.97;;
3347;SDS011;1687;49.540;8.574;2023-04-27T15:08:16;3.53;;;2.00;;
3347;SDS011;1687;49.540;8.574;2023-04-27T15:10:42;6.63;;;2.63;;
3347;SDS011;1687;49.540;8.574;2023-04-27T15:13:08;8.47;;;2.43;;
3347;SDS011;1687;49.540;8.574;2023-04-27T15:15:34;5.20;;;2.67;;
3347;SDS011;1687;49.540;8.574;2023-04-27T15:17:59;4.53;;;2.10;;
3347;SDS011;1687;49.540;8.574;2023-04-27T15:20:25;3.70;;;2.10;;